Montgomery, AL (36114)

19:37 CST le 21 janvier 2017 (GMT -0600)
Boylston | | Change Station
Avis météorologiques actifs: Tornado Watch Préavis actif: Public Information Statement

Alt. 220 ft 32.43 °N, 86.28 °W | Updated 41 seconds ago

Partiellement nuageux
Partiellement nuageux
64.4 ° F
Paraît 64.4 ° F
N
0.0
Vent Variable Vent de NNO
Gusts 0.0 mph

Aujourd'hui
Haut(e) -- | Bas -- ° F
--% Risque de précip.
Hier
Haut(e) -- | Bas -- ° F
Precip. -- pouce
Pression 29.64 pouce
Visibilité 10.0 Miles terrestres
Nuages Ciel dégagé
Point de rosée 62 ° F
Humidité 90%
Précipitations 2.33 pouce
Profondeur de la couche neigeuse Non disponible.
6:44 AM 5:08 PM
Lune descendante, 30% visible
METAR KMXF 220058Z AUTO 15007KT 10SM CLR 18/16 A2963 RMK AO2 SLP036 T01780158
Pression 29.64 pouce
Visibilité 10.0 Miles terrestres
Nuages Ciel dégagé
Point de rosée 62 ° F
Humidité 90%
Précipitations 2.33 pouce
Profondeur de la couche neigeuse Non disponible.
6:44 AM 5:08 PM
Lune descendante, 30% visible
METAR KMXF 220058Z AUTO 15007KT 10SM CLR 18/16 A2963 RMK AO2 SLP036 T01780158

Get Your Daily Forecast Email!

Thanks for signing up!

Be on the lookout for a verification email in your inbox.

You'll start receiving the daily forecast at 8 AM.

×

10-Day Weather Forecast

Almanac

Astronomie

Jan. 21, 2017 Lever Coucher
Temps réel
Crépuscule civil
Crépuscule nautique
Crépuscule astronomique
Lune
Durée de lumière visible
Longueur du jour
Tomorrow will be .
, % of the Moon is Illuminated

Extrêmes aujourd'hui

State Highs State Lows

Community

WunderPhotos

Upload Photos

1,962,540 Photos téléchargées !

WunderBlog® & News

Nearby

Qualité de l'air

  Qualité de l'air Indice de la qualité de l'air Polluant
Not available.

Épaisseur de neige

Station Depth Altitude

Activité sismique

Ville Distance Mag. Time & Date
Minimum magnitude displayed is 2.5.

Températures des eaux côtières

Lieu Température

Stations

Stations météo à proximité

Emplacement de la station Température Refroidissement éolien Point de rosée Humidité Vent Precip. Alt. Mise à jour Type
                   

Watches & Warnings

Tornado Watch
Issued: 19:24 CST Jan. 21, 2017 – National Weather Service

Tornado Watch 17 remains in effect until 300 am CST for the
following locations


Al
. Alabama counties included are

Autauga Baldwin Barbour
Bibb Bullock Butler
Chambers Chilton Choctaw
Clarke Clay Coffee
Conecuh Coosa Covington
Crenshaw Dale Dallas
Elmore Escambia Geneva
Greene Hale Henry
Houston Lee Lowndes
Macon Marengo Mobile
Monroe Montgomery Perry
Pike Randolph Russell
Shelby Sumter Talladega
Tallapoosa Washington Wilcox